createdAt,value
2024-05-09T00:00:12.718Z,697.00
2024-05-09T00:01:08.754Z,699.00
2024-05-09T00:02:07.794Z,700.00
2024-05-09T00:03:09.010Z,697.00
2024-05-09T00:04:07.889Z,700.00
2024-05-09T00:05:07.962Z,699.00
2024-05-09T00:06:08.174Z,697.00
2024-05-09T00:07:08.114Z,698.00
2024-05-09T00:08:08.225Z,698.00
2024-05-09T00:09:08.234Z,696.00
2024-05-09T00:10:14.599Z,696.00
2024-05-09T00:11:09.418Z,695.00
2024-05-09T00:12:08.657Z,695.00
2024-05-09T00:13:08.744Z,695.00
2024-05-09T00:14:08.436Z,696.00
2024-05-09T00:15:08.443Z,694.00
2024-05-09T00:16:08.479Z,693.00
2024-05-09T00:17:08.519Z,694.00
2024-05-09T00:18:09.570Z,694.00
2024-05-09T00:19:08.665Z,694.00
2024-05-09T00:20:17.407Z,692.00
2024-05-09T00:21:09.833Z,692.00
2024-05-09T00:22:08.656Z,694.00
2024-05-09T00:23:09.285Z,693.00
2024-05-09T00:24:08.694Z,693.00
2024-05-09T00:25:08.751Z,689.00
2024-05-09T00:26:08.804Z,690.00
2024-05-09T00:27:11.281Z,691.00
2024-05-09T00:28:08.800Z,691.00
2024-05-09T00:29:08.895Z,688.00
2024-05-09T00:30:14.274Z,690.00
2024-05-09T00:31:09.877Z,692.00
2024-05-09T00:32:08.976Z,693.00
2024-05-09T00:33:10.425Z,693.00
2024-05-09T00:34:09.235Z,693.00
2024-05-09T00:35:09.198Z,692.00
2024-05-09T00:36:09.214Z,692.00
2024-05-09T00:37:09.438Z,694.00
2024-05-09T00:38:09.464Z,694.00
2024-05-09T00:39:09.466Z,696.00
2024-05-09T00:40:15.113Z,695.00
2024-05-09T00:41:10.639Z,696.00
2024-05-09T00:42:09.606Z,695.00
2024-05-09T00:43:09.632Z,696.00
2024-05-09T00:44:09.707Z,694.00
2024-05-09T00:45:09.678Z,691.00
2024-05-09T00:46:09.704Z,691.00
2024-05-09T00:47:09.986Z,689.00
2024-05-09T00:48:10.700Z,690.00
2024-05-09T00:49:10.065Z,688.00
2024-05-09T00:50:15.759Z,689.00
2024-05-09T00:51:11.272Z,688.00
2024-05-09T00:52:10.046Z,687.00
2024-05-09T00:53:10.157Z,686.00
2024-05-09T00:54:10.076Z,684.00
2024-05-09T00:55:10.089Z,683.00
2024-05-09T00:56:10.181Z,686.00
2024-05-09T00:57:10.197Z,687.00
2024-05-09T00:58:10.246Z,690.00
2024-05-09T00:59:10.225Z,688.00
2024-05-09T01:00:22.088Z,687.00
2024-05-09T01:01:11.311Z,689.00
2024-05-09T01:02:10.447Z,687.00
2024-05-09T01:03:12.482Z,689.00
2024-05-09T01:04:10.430Z,692.00
2024-05-09T01:05:10.597Z,691.00
2024-05-09T01:06:10.401Z,690.00
2024-05-09T01:07:10.500Z,689.00
2024-05-09T01:08:10.910Z,689.00
2024-05-09T01:09:10.510Z,692.00
2024-05-09T01:10:17.009Z,697.00
2024-05-09T01:11:11.595Z,696.00
2024-05-09T01:12:10.759Z,695.00
2024-05-09T01:13:10.554Z,693.00
2024-05-09T01:14:10.690Z,694.00
2024-05-09T01:15:10.601Z,692.00
2024-05-09T01:16:10.620Z,693.00
2024-05-09T01:17:10.828Z,693.00
2024-05-09T01:18:11.787Z,693.00
2024-05-09T01:19:10.964Z,694.00
2024-05-09T01:20:16.317Z,694.00
2024-05-09T01:21:11.928Z,693.00
2024-05-09T01:22:10.947Z,694.00
2024-05-09T01:23:10.902Z,696.00
2024-05-09T01:24:10.847Z,695.00
2024-05-09T01:25:10.863Z,695.00
2024-05-09T01:26:10.951Z,696.00
2024-05-09T01:27:10.904Z,695.00
2024-05-09T01:28:10.932Z,692.00
2024-05-09T01:29:11.008Z,692.00
2024-05-09T01:30:17.189Z,692.00
2024-05-09T01:31:12.056Z,694.00
2024-05-09T01:32:11.372Z,693.00
2024-05-09T01:33:12.618Z,695.00
2024-05-09T01:34:11.350Z,695.00
2024-05-09T01:35:11.238Z,697.00
2024-05-09T01:36:11.946Z,699.00
2024-05-09T01:37:11.188Z,699.00
2024-05-09T01:38:11.265Z,698.00
2024-05-09T01:39:11.238Z,699.00
2024-05-09T01:40:15.303Z,695.00
2024-05-09T01:41:12.422Z,695.00
2024-05-09T01:42:11.361Z,694.00
2024-05-09T01:43:12.180Z,691.00
2024-05-09T01:44:11.442Z,692.00
2024-05-09T01:45:11.439Z,694.00
2024-05-09T01:46:11.459Z,694.00
2024-05-09T01:47:11.658Z,694.00
2024-05-09T01:48:11.888Z,695.00
2024-05-09T01:49:11.642Z,696.00
2024-05-09T01:50:13.377Z,696.00
2024-05-09T01:51:11.727Z,696.00
2024-05-09T01:52:11.565Z,694.00
2024-05-09T01:53:11.920Z,693.00
2024-05-09T01:54:11.608Z,692.00
2024-05-09T01:55:11.700Z,693.00
2024-05-09T01:56:11.715Z,692.00
2024-05-09T01:57:11.682Z,691.00
2024-05-09T01:58:11.680Z,693.00
2024-05-09T01:59:11.813Z,693.00
2024-05-09T02:00:15.612Z,691.00
2024-05-09T02:01:11.779Z,691.00
2024-05-09T02:02:11.954Z,690.00
2024-05-09T02:03:14.922Z,690.00
2024-05-09T02:04:13.015Z,688.00
2024-05-09T02:05:12.061Z,689.00
2024-05-09T02:06:11.943Z,689.00
2024-05-09T02:07:11.865Z,693.00
2024-05-09T02:08:11.939Z,694.00
2024-05-09T02:09:11.880Z,691.00
2024-05-09T02:10:20.060Z,691.00
2024-05-09T02:11:13.018Z,692.00
2024-05-09T02:12:12.225Z,688.00
2024-05-09T02:13:12.471Z,687.00
2024-05-09T02:14:11.997Z,685.00
2024-05-09T02:15:11.985Z,685.00
2024-05-09T02:16:12.008Z,685.00
2024-05-09T02:17:12.115Z,684.00
2024-05-09T02:18:12.819Z,682.00
2024-05-09T02:19:12.134Z,685.00
2024-05-09T02:20:18.844Z,686.00
2024-05-09T02:21:13.149Z,684.00
2024-05-09T02:22:12.133Z,685.00
2024-05-09T02:23:12.424Z,685.00
2024-05-09T02:24:12.163Z,684.00
2024-05-09T02:25:12.174Z,684.00
2024-05-09T02:26:12.271Z,684.00
2024-05-09T02:27:12.213Z,682.00
2024-05-09T02:28:12.228Z,679.00
2024-05-09T02:29:12.363Z,681.00
2024-05-09T02:30:18.677Z,682.00
2024-05-09T02:31:13.546Z,684.00
2024-05-09T02:32:12.605Z,685.00
2024-05-09T02:33:14.214Z,686.00
2024-05-09T02:34:12.742Z,687.00
2024-05-09T02:35:12.734Z,688.00
2024-05-09T02:36:12.747Z,685.00
2024-05-09T02:37:12.784Z,686.00
2024-05-09T02:38:13.425Z,686.00
2024-05-09T02:39:12.863Z,688.00
2024-05-09T02:40:14.919Z,690.00
2024-05-09T02:41:14.551Z,690.00
2024-05-09T02:42:13.058Z,690.00
2024-05-09T02:43:13.312Z,687.00
2024-05-09T02:44:13.103Z,686.00
2024-05-09T02:45:13.012Z,685.00
2024-05-09T02:46:13.109Z,683.00
2024-05-09T02:47:13.128Z,681.00
2024-05-09T02:48:14.019Z,678.00
2024-05-09T02:49:13.234Z,676.00
2024-05-09T02:51:13.182Z,675.00
2024-05-09T02:52:13.174Z,677.00
2024-05-09T02:53:13.659Z,679.00
2024-05-09T02:54:13.180Z,680.00
2024-05-09T02:55:13.189Z,680.00
2024-05-09T02:56:13.315Z,682.00
2024-05-09T02:57:13.307Z,681.00
2024-05-09T02:58:13.378Z,678.00
2024-05-09T02:59:13.397Z,677.00
2024-05-09T03:00:18.969Z,680.00
2024-05-09T03:01:14.427Z,680.00
2024-05-09T03:02:13.465Z,682.00
2024-05-09T03:03:15.332Z,683.00
2024-05-09T03:04:14.523Z,682.00
2024-05-09T03:05:13.616Z,685.00
2024-05-09T03:06:13.644Z,687.00
2024-05-09T03:07:13.690Z,687.00
2024-05-09T03:08:13.834Z,684.00
2024-05-09T03:09:13.868Z,683.00
2024-05-09T03:10:21.925Z,683.00
2024-05-09T03:11:14.959Z,685.00
2024-05-09T03:12:14.007Z,686.00
2024-05-09T03:13:15.297Z,687.00
2024-05-09T03:14:13.993Z,686.00
2024-05-09T03:15:13.932Z,686.00
2024-05-09T03:16:13.954Z,688.00
2024-05-09T03:17:14.023Z,687.00
2024-05-09T03:18:14.263Z,687.00
2024-05-09T03:19:14.261Z,688.00
2024-05-09T03:20:20.419Z,688.00
2024-05-09T03:21:15.195Z,690.00
2024-05-09T03:22:14.156Z,691.00
2024-05-09T03:23:14.330Z,686.00
2024-05-09T03:24:14.194Z,685.00
2024-05-09T03:25:14.207Z,683.00
2024-05-09T03:26:14.263Z,686.00
2024-05-09T03:27:14.247Z,684.00
2024-05-09T03:28:14.273Z,684.00
2024-05-09T03:29:14.286Z,683.00
2024-05-09T03:31:14.301Z,683.00
2024-05-09T03:32:14.520Z,684.00
2024-05-09T03:33:15.379Z,684.00
2024-05-09T03:34:14.479Z,684.00
2024-05-09T03:35:14.571Z,685.00
2024-05-09T03:36:14.570Z,685.00
2024-05-09T03:37:14.622Z,682.00
2024-05-09T03:38:14.875Z,681.00
2024-05-09T03:39:14.744Z,679.00
2024-05-09T03:40:20.842Z,677.00
2024-05-09T03:41:15.864Z,677.00
2024-05-09T03:42:14.835Z,675.00
2024-05-09T03:43:14.856Z,674.00
2024-05-09T03:44:14.916Z,676.00
2024-05-09T03:45:14.876Z,676.00
2024-05-09T03:46:14.882Z,677.00
2024-05-09T03:47:14.983Z,677.00
2024-05-09T03:48:15.068Z,678.00
2024-05-09T03:49:15.083Z,680.00
2024-05-09T03:50:22.049Z,680.00
2024-05-09T03:51:16.006Z,679.00
2024-05-09T03:52:14.961Z,678.00
2024-05-09T03:53:15.101Z,678.00
2024-05-09T03:54:14.995Z,678.00
2024-05-09T03:55:15.006Z,676.00
2024-05-09T03:56:15.176Z,675.00
2024-05-09T03:57:15.054Z,673.00
2024-05-09T03:58:15.109Z,674.00
2024-05-09T03:59:15.218Z,676.00
2024-05-09T04:00:21.979Z,674.00
2024-05-09T04:01:16.156Z,674.00
2024-05-09T04:02:15.302Z,675.00
2024-05-09T04:03:15.565Z,675.00
2024-05-09T04:04:15.151Z,676.00
2024-05-09T04:05:15.172Z,677.00
2024-05-09T04:06:15.161Z,679.00
2024-05-09T04:07:15.165Z,678.00
2024-05-09T04:08:15.737Z,678.00
2024-05-09T04:09:15.206Z,680.00
2024-05-09T04:10:23.999Z,684.00
2024-05-09T04:11:16.559Z,684.00
2024-05-09T04:12:15.385Z,685.00
2024-05-09T04:13:15.317Z,684.00
2024-05-09T04:14:15.385Z,682.00
2024-05-09T04:15:15.268Z,678.00
2024-05-09T04:16:15.294Z,674.00
2024-05-09T04:17:15.417Z,671.00
2024-05-09T04:18:15.369Z,668.00
2024-05-09T04:19:15.638Z,672.00
2024-05-09T04:20:28.227Z,674.00
2024-05-09T04:21:16.401Z,672.00
2024-05-09T04:22:15.380Z,669.00
2024-05-09T04:23:15.437Z,667.00
2024-05-09T04:24:15.417Z,666.00
2024-05-09T04:25:15.431Z,666.00
2024-05-09T04:26:15.558Z,667.00
2024-05-09T04:27:15.468Z,669.00
2024-05-09T04:28:15.476Z,667.00
2024-05-09T04:29:15.533Z,667.00
2024-05-09T04:30:25.397Z,665.00
2024-05-09T04:31:16.557Z,667.00
2024-05-09T04:32:15.710Z,669.00
2024-05-09T04:33:15.967Z,669.00
2024-05-09T04:34:15.890Z,671.00
2024-05-09T04:35:15.792Z,672.00
2024-05-09T04:36:15.832Z,672.00
2024-05-09T04:37:15.881Z,672.00
2024-05-09T04:38:16.246Z,671.00
2024-05-09T04:39:15.994Z,667.00
2024-05-09T04:40:24.291Z,665.00
2024-05-09T04:41:17.237Z,668.00
2024-05-09T04:42:16.096Z,666.00
2024-05-09T04:43:16.238Z,665.00
2024-05-09T04:44:16.174Z,665.00
2024-05-09T04:45:16.143Z,666.00
2024-05-09T04:46:23.431Z,677.00
2024-05-09T04:47:23.535Z,675.00
2024-05-09T04:48:23.532Z,675.00
2024-05-09T04:49:23.536Z,675.00
2024-05-09T04:50:30.386Z,672.00
2024-05-09T04:51:24.446Z,672.00
2024-05-09T04:52:23.434Z,668.00
2024-05-09T04:53:23.519Z,664.00
2024-05-09T04:54:33.525Z,664.00
2024-05-09T04:55:24.454Z,668.00
2024-05-09T04:56:23.483Z,667.00
2024-05-09T04:57:23.451Z,669.00
2024-05-09T04:58:23.456Z,670.00
2024-05-09T04:59:23.470Z,670.00
2024-05-09T05:00:31.987Z,671.00
2024-05-09T05:01:24.516Z,669.00
2024-05-09T05:02:23.595Z,671.00
2024-05-09T05:03:23.664Z,670.00
2024-05-09T05:04:23.488Z,666.00
2024-05-09T05:05:23.526Z,668.00
2024-05-09T05:06:23.441Z,669.00
2024-05-09T05:07:23.441Z,669.00
2024-05-09T05:08:23.466Z,671.00
2024-05-09T05:09:23.457Z,672.00
2024-05-09T05:10:33.001Z,672.00
2024-05-09T05:11:24.684Z,672.00
2024-05-09T05:12:23.772Z,672.00
2024-05-09T05:13:24.506Z,670.00
2024-05-09T05:14:23.839Z,672.00
2024-05-09T05:15:24.048Z,676.00
2024-05-09T05:16:23.785Z,676.00
2024-05-09T05:17:23.963Z,675.00
2024-05-09T05:18:24.061Z,674.00
2024-05-09T05:19:24.066Z,672.00
2024-05-09T05:20:31.033Z,673.00
2024-05-09T05:21:25.146Z,672.00
2024-05-09T05:22:24.028Z,669.00
2024-05-09T05:23:24.258Z,669.00
2024-05-09T05:24:24.025Z,670.00
2024-05-09T05:25:24.025Z,672.00
2024-05-09T05:26:24.093Z,670.00
2024-05-09T05:27:24.026Z,671.00
2024-05-09T05:28:24.106Z,671.00
2024-05-09T05:29:24.069Z,672.00
2024-05-09T05:30:29.087Z,672.00
2024-05-09T05:31:25.039Z,668.00
2024-05-09T05:32:24.142Z,668.00
2024-05-09T05:33:24.086Z,668.00
2024-05-09T05:34:24.028Z,668.00
2024-05-09T05:35:24.116Z,670.00
2024-05-09T05:36:24.038Z,669.00
2024-05-09T05:37:24.038Z,668.00
2024-05-09T05:38:27.411Z,667.00
2024-05-09T05:39:24.046Z,667.00
2024-05-09T05:40:32.751Z,664.00
2024-05-09T05:41:25.127Z,665.00
2024-05-09T05:42:24.061Z,665.00
2024-05-09T05:43:24.074Z,667.00
2024-05-09T05:44:24.118Z,668.00
2024-05-09T05:45:24.068Z,666.00
2024-05-09T05:46:24.079Z,666.00
2024-05-09T05:47:24.234Z,666.00
2024-05-09T05:48:24.288Z,668.00
2024-05-09T05:49:24.283Z,667.00
2024-05-09T05:50:31.926Z,666.00
2024-05-09T05:51:25.116Z,665.00
2024-05-09T05:52:24.106Z,664.00
2024-05-09T05:53:24.629Z,663.00
2024-05-09T05:54:24.101Z,660.00
2024-05-09T05:55:24.110Z,659.00
2024-05-09T05:56:24.138Z,657.00
2024-05-09T05:57:24.109Z,657.00
2024-05-09T05:58:24.115Z,658.00
2024-05-09T05:59:24.174Z,660.00
2024-05-09T06:01:24.231Z,662.00
2024-05-09T06:02:24.179Z,661.00
2024-05-09T06:03:24.173Z,659.00
2024-05-09T06:04:24.145Z,658.00
2024-05-09T06:05:26.036Z,658.00
2024-05-09T06:06:24.145Z,658.00
2024-05-09T06:07:24.130Z,659.00
2024-05-09T06:08:26.192Z,663.00
2024-05-09T06:09:24.118Z,663.00
2024-05-09T06:10:29.674Z,664.00
2024-05-09T06:11:25.273Z,664.00
2024-05-09T06:12:24.261Z,663.00
2024-05-09T06:13:25.065Z,664.00
2024-05-09T06:14:24.236Z,666.00
2024-05-09T06:15:24.094Z,664.00
2024-05-09T06:16:24.101Z,668.00
2024-05-09T06:17:24.300Z,671.00
2024-05-09T06:18:24.669Z,673.00
2024-05-09T06:19:24.526Z,670.00
2024-05-09T06:20:33.599Z,666.00
2024-05-09T06:21:25.159Z,667.00
2024-05-09T06:22:24.102Z,664.00
2024-05-09T06:23:24.118Z,661.00
2024-05-09T06:24:24.097Z,663.00
2024-05-09T06:25:24.138Z,662.00
2024-05-09T06:26:24.155Z,665.00
2024-05-09T06:27:24.085Z,664.00
2024-05-09T06:28:24.085Z,664.00
2024-05-09T06:29:24.205Z,662.00
2024-05-09T06:30:30.751Z,662.00
2024-05-09T06:31:25.101Z,663.00
2024-05-09T06:32:24.364Z,663.00
2024-05-09T06:33:24.343Z,662.00
2024-05-09T06:34:24.250Z,663.00
2024-05-09T06:35:24.083Z,664.00
2024-05-09T06:36:24.099Z,664.00
2024-05-09T06:37:24.061Z,658.00
2024-05-09T06:38:24.071Z,658.00
2024-05-09T06:39:24.057Z,662.00
2024-05-09T06:40:29.279Z,663.00
2024-05-09T06:41:25.115Z,664.00
2024-05-09T06:42:24.069Z,666.00
2024-05-09T06:43:24.056Z,666.00
2024-05-09T06:44:24.137Z,667.00
2024-05-09T06:45:24.045Z,666.00
2024-05-09T06:46:24.119Z,666.00
2024-05-09T06:47:24.169Z,665.00
2024-05-09T06:48:24.224Z,664.00
2024-05-09T06:49:24.356Z,665.00
2024-05-09T06:50:27.925Z,666.00
2024-05-09T06:51:25.056Z,662.00
2024-05-09T06:52:24.000Z,659.00
2024-05-09T06:53:24.113Z,659.00
2024-05-09T06:54:23.989Z,663.00
2024-05-09T06:55:23.975Z,661.00
2024-05-09T06:56:24.657Z,658.00
2024-05-09T06:57:23.960Z,655.00
2024-05-09T06:58:24.084Z,656.00
2024-05-09T06:59:24.612Z,655.00
2024-05-09T07:00:30.762Z,656.00
2024-05-09T07:01:24.965Z,656.00
2024-05-09T07:02:24.015Z,657.00
2024-05-09T07:03:24.099Z,660.00
2024-05-09T07:04:23.985Z,660.00
2024-05-09T07:05:24.049Z,659.00
2024-05-09T07:06:23.931Z,660.00
2024-05-09T07:07:23.923Z,658.00
2024-05-09T07:08:23.972Z,658.00
2024-05-09T07:09:23.928Z,659.00
2024-05-09T07:10:29.141Z,659.00
2024-05-09T07:11:25.011Z,659.00
2024-05-09T07:12:23.984Z,658.00
2024-05-09T07:13:23.933Z,657.00
2024-05-09T07:14:24.011Z,659.00
2024-05-09T07:15:23.912Z,659.00
2024-05-09T07:16:23.906Z,662.00
2024-05-09T07:17:24.052Z,660.00
2024-05-09T07:18:24.013Z,660.00
2024-05-09T07:19:23.981Z,663.00
2024-05-09T07:20:32.270Z,661.00
2024-05-09T07:21:24.979Z,661.00
2024-05-09T07:22:23.918Z,661.00
2024-05-09T07:23:23.965Z,660.00
2024-05-09T07:24:23.908Z,658.00
2024-05-09T07:25:23.906Z,659.00
2024-05-09T07:26:24.027Z,659.00
2024-05-09T07:27:23.910Z,658.00
2024-05-09T07:28:23.899Z,656.00
2024-05-09T07:29:23.941Z,655.00
2024-05-09T07:30:30.780Z,658.00
2024-05-09T07:31:24.879Z,658.00
2024-05-09T07:32:24.014Z,658.00
2024-05-09T07:33:24.697Z,658.00
2024-05-09T07:34:24.085Z,658.00
2024-05-09T07:35:23.869Z,660.00
2024-05-09T07:36:23.849Z,662.00
2024-05-09T07:37:23.840Z,663.00
2024-05-09T07:38:24.018Z,665.00
2024-05-09T07:39:23.834Z,664.00
2024-05-09T07:40:32.739Z,663.00
2024-05-09T07:41:24.964Z,661.00
2024-05-09T07:42:23.804Z,660.00
2024-05-09T07:43:23.804Z,660.00
2024-05-09T07:44:23.821Z,661.00
2024-05-09T07:45:41.692Z,663.00
2024-05-09T07:47:20.256Z,667.00
2024-05-09T07:48:56.875Z,667.00
2024-05-09T07:53:30.602Z,655.00
2024-05-09T07:54:23.882Z,657.00
2024-05-09T07:55:23.814Z,657.00
2024-05-09T07:56:24.560Z,658.00
2024-05-09T07:57:23.769Z,659.00
2024-05-09T07:58:23.696Z,659.00
2024-05-09T07:59:23.701Z,661.00
2024-05-09T08:00:29.608Z,660.00
2024-05-09T08:01:24.827Z,659.00
2024-05-09T08:02:23.822Z,658.00
2024-05-09T08:03:23.981Z,661.00
2024-05-09T08:04:25.220Z,664.00
2024-05-09T08:05:23.742Z,661.00
2024-05-09T08:06:23.633Z,660.00
2024-05-09T08:07:23.660Z,659.00
2024-05-09T08:08:23.628Z,656.00
2024-05-09T08:09:23.606Z,653.00
2024-05-09T08:10:28.537Z,652.00
2024-05-09T08:11:24.732Z,650.00
2024-05-09T08:12:23.607Z,651.00
2024-05-09T08:13:23.656Z,650.00
2024-05-09T08:14:23.587Z,650.00
2024-05-09T08:15:23.593Z,650.00
2024-05-09T08:16:23.934Z,650.00
2024-05-09T08:17:23.693Z,647.00
2024-05-09T08:18:23.674Z,646.00
2024-05-09T08:19:23.588Z,645.00
2024-05-09T08:20:30.934Z,647.00
2024-05-09T08:21:24.550Z,648.00
2024-05-09T08:22:23.548Z,647.00
2024-05-09T08:23:23.577Z,645.00
2024-05-09T08:24:23.569Z,645.00
2024-05-09T08:25:23.677Z,646.00
2024-05-09T08:26:23.523Z,647.00
2024-05-09T08:27:23.530Z,650.00
2024-05-09T08:28:23.550Z,650.00
2024-05-09T08:29:23.540Z,650.00
2024-05-09T08:30:30.124Z,652.00
2024-05-09T08:31:24.552Z,653.00
2024-05-09T08:32:23.588Z,654.00
2024-05-09T08:33:23.603Z,654.00
2024-05-09T08:34:23.750Z,654.00
2024-05-09T08:35:23.476Z,656.00
2024-05-09T08:36:23.486Z,654.00
2024-05-09T08:37:26.242Z,653.00
2024-05-09T08:38:24.493Z,653.00
2024-05-09T08:39:23.485Z,652.00
2024-05-09T08:40:30.765Z,650.00
2024-05-09T08:41:24.458Z,649.00
2024-05-09T08:42:23.461Z,651.00
2024-05-09T08:43:23.677Z,654.00
2024-05-09T08:44:23.434Z,656.00
2024-05-09T08:45:23.442Z,659.00
2024-05-09T08:46:23.456Z,659.00
2024-05-09T08:47:23.529Z,655.00
2024-05-09T08:48:23.709Z,654.00
2024-05-09T08:49:23.541Z,653.00
2024-05-09T08:50:32.217Z,653.00
2024-05-09T08:51:24.398Z,653.00
2024-05-09T08:52:23.386Z,653.00
2024-05-09T08:53:23.378Z,653.00
2024-05-09T08:54:23.366Z,652.00
2024-05-09T08:55:23.354Z,651.00
2024-05-09T08:56:23.365Z,651.00
2024-05-09T08:57:23.348Z,651.00
2024-05-09T08:58:23.362Z,655.00
2024-05-09T08:59:23.336Z,655.00
2024-05-09T09:00:33.468Z,653.00
2024-05-09T09:01:24.493Z,653.00
2024-05-09T09:02:23.464Z,652.00
2024-05-09T09:03:23.380Z,650.00
2024-05-09T09:04:23.467Z,649.00
2024-05-09T09:05:23.461Z,648.00
2024-05-09T09:06:23.299Z,648.00
2024-05-09T09:07:23.391Z,647.00
2024-05-09T09:08:23.278Z,645.00
2024-05-09T09:09:23.286Z,646.00
2024-05-09T09:10:29.739Z,646.00
2024-05-09T09:11:24.328Z,647.00
2024-05-09T09:12:23.248Z,647.00
2024-05-09T09:13:23.332Z,649.00
2024-05-09T09:14:23.244Z,652.00
2024-05-09T09:15:23.273Z,653.00
2024-05-09T09:16:23.580Z,652.00
2024-05-09T09:17:23.288Z,653.00
2024-05-09T09:18:23.302Z,654.00
2024-05-09T09:19:23.473Z,654.00
2024-05-09T09:20:29.199Z,651.00
2024-05-09T09:21:24.205Z,652.00
2024-05-09T09:22:23.196Z,651.00
2024-05-09T09:23:23.217Z,651.00
2024-05-09T09:24:23.185Z,650.00
2024-05-09T09:25:23.212Z,651.00
2024-05-09T09:26:23.177Z,652.00
2024-05-09T09:27:23.180Z,651.00
2024-05-09T09:28:23.324Z,653.00
2024-05-09T09:29:23.164Z,655.00
2024-05-09T09:30:34.440Z,656.00
2024-05-09T09:31:24.186Z,657.00
2024-05-09T09:32:23.255Z,659.00
2024-05-09T09:33:23.264Z,659.00
2024-05-09T09:34:23.272Z,658.00
2024-05-09T09:35:23.255Z,659.00
2024-05-09T09:36:23.119Z,661.00
2024-05-09T09:37:23.114Z,663.00
2024-05-09T09:38:23.127Z,663.00
2024-05-09T09:39:23.080Z,661.00
2024-05-09T09:40:29.256Z,661.00
2024-05-09T09:41:24.072Z,657.00
2024-05-09T09:42:23.073Z,655.00
2024-05-09T09:43:23.364Z,655.00
2024-05-09T09:44:23.039Z,654.00
2024-05-09T09:45:23.056Z,653.00
2024-05-09T09:46:23.102Z,653.00
2024-05-09T09:47:23.087Z,654.00
2024-05-09T09:48:23.535Z,653.00
2024-05-09T09:49:23.048Z,653.00
2024-05-09T09:50:27.802Z,657.00
2024-05-09T09:51:23.998Z,657.00
2024-05-09T09:52:23.764Z,656.00
2024-05-09T09:53:22.973Z,655.00
2024-05-09T09:54:22.963Z,657.00
2024-05-09T09:55:23.136Z,655.00
2024-05-09T09:56:22.942Z,654.00
2024-05-09T09:57:22.964Z,652.00
2024-05-09T09:58:23.225Z,654.00
2024-05-09T09:59:22.954Z,653.00
2024-05-09T10:00:27.471Z,652.00
2024-05-09T10:01:23.960Z,652.00
2024-05-09T10:02:23.088Z,651.00
2024-05-09T10:03:23.006Z,651.00
2024-05-09T10:04:23.103Z,649.00
2024-05-09T10:05:22.979Z,648.00
2024-05-09T10:06:22.928Z,648.00
2024-05-09T10:07:23.010Z,647.00
2024-05-09T10:08:22.865Z,646.00
2024-05-09T10:09:22.859Z,647.00
2024-05-09T10:10:27.422Z,647.00
2024-05-09T10:11:23.886Z,647.00
2024-05-09T10:12:22.992Z,647.00
2024-05-09T10:13:22.892Z,649.00
2024-05-09T10:14:22.824Z,645.00
2024-05-09T10:15:22.854Z,647.00
2024-05-09T10:16:23.050Z,647.00
2024-05-09T10:17:22.863Z,647.00
2024-05-09T10:18:23.069Z,646.00
2024-05-09T10:19:22.932Z,645.00
2024-05-09T10:20:27.936Z,647.00
2024-05-09T10:21:23.786Z,649.00
2024-05-09T10:22:22.889Z,649.00
2024-05-09T10:23:22.780Z,649.00
2024-05-09T10:24:22.762Z,648.00
2024-05-09T10:25:22.956Z,648.00
2024-05-09T10:26:22.759Z,650.00
2024-05-09T10:27:22.752Z,652.00
2024-05-09T10:28:22.784Z,651.00
2024-05-09T10:29:22.745Z,651.00
2024-05-09T10:30:29.943Z,652.00
2024-05-09T10:31:23.767Z,649.00
2024-05-09T10:32:22.783Z,652.00
2024-05-09T10:33:22.823Z,650.00
2024-05-09T10:34:23.023Z,648.00
2024-05-09T10:35:22.729Z,648.00
2024-05-09T10:36:22.720Z,647.00
2024-05-09T10:37:22.758Z,642.00
2024-05-09T10:38:22.660Z,643.00
2024-05-09T10:39:22.665Z,646.00
2024-05-09T10:40:26.639Z,647.00
2024-05-09T10:41:23.891Z,647.00
2024-05-09T10:42:22.634Z,646.00
2024-05-09T10:43:22.810Z,649.00
2024-05-09T10:44:22.620Z,650.00
2024-05-09T10:45:22.616Z,647.00
2024-05-09T10:46:22.735Z,645.00
2024-05-09T10:47:22.625Z,643.00
2024-05-09T10:48:22.714Z,644.00
2024-05-09T10:49:22.673Z,643.00
2024-05-09T10:50:28.468Z,643.00
2024-05-09T10:51:23.601Z,644.00
2024-05-09T10:52:22.601Z,642.00
2024-05-09T10:53:22.580Z,642.00
2024-05-09T10:54:22.565Z,644.00
2024-05-09T10:55:22.750Z,645.00
2024-05-09T10:56:22.551Z,646.00
2024-05-09T10:57:22.749Z,643.00
2024-05-09T10:58:22.600Z,644.00
2024-05-09T10:59:22.536Z,646.00
2024-05-09T11:00:27.836Z,646.00
2024-05-09T11:01:23.661Z,647.00
2024-05-09T11:02:22.819Z,645.00
2024-05-09T11:03:22.591Z,648.00
2024-05-09T11:04:22.632Z,647.00
2024-05-09T11:05:22.832Z,649.00
2024-05-09T11:06:22.485Z,650.00
2024-05-09T11:07:22.544Z,650.00
2024-05-09T11:08:22.473Z,647.00
2024-05-09T11:09:22.492Z,645.00
2024-05-09T11:10:27.593Z,646.00
2024-05-09T11:11:23.482Z,646.00
2024-05-09T11:12:24.710Z,646.00
2024-05-09T11:13:22.556Z,646.00
2024-05-09T11:14:22.478Z,647.00
2024-05-09T11:15:22.474Z,649.00
2024-05-09T11:16:22.684Z,646.00
2024-05-09T11:17:22.542Z,642.00
2024-05-09T11:18:25.034Z,643.00
2024-05-09T11:19:22.812Z,641.00
2024-05-09T11:20:29.185Z,642.00
2024-05-09T11:21:23.532Z,644.00
2024-05-09T11:22:22.542Z,642.00
2024-05-09T11:23:22.532Z,640.00
2024-05-09T11:24:22.522Z,642.00
2024-05-09T11:25:22.551Z,644.00
2024-05-09T11:26:22.552Z,643.00
2024-05-09T11:27:22.509Z,645.00
2024-05-09T11:28:22.577Z,647.00
2024-05-09T11:29:22.503Z,648.00
2024-05-09T11:30:29.745Z,647.00
2024-05-09T11:31:23.762Z,648.00
2024-05-09T11:32:22.525Z,648.00
2024-05-09T11:33:22.568Z,648.00
2024-05-09T11:34:22.526Z,643.00
2024-05-09T11:35:22.452Z,640.00
2024-05-09T11:36:22.439Z,639.00
2024-05-09T11:37:22.480Z,640.00
2024-05-09T11:38:22.429Z,639.00
2024-05-09T11:39:22.422Z,641.00
2024-05-09T11:40:25.764Z,644.00
2024-05-09T11:41:24.214Z,644.00
2024-05-09T11:42:22.401Z,646.00
2024-05-09T11:43:22.462Z,648.00
2024-05-09T11:44:22.375Z,645.00
2024-05-09T11:45:22.382Z,648.00
2024-05-09T11:46:22.450Z,646.00
2024-05-09T11:47:22.396Z,644.00
2024-05-09T11:48:22.598Z,643.00
2024-05-09T11:49:25.362Z,644.00
2024-05-09T11:50:29.801Z,643.00
2024-05-09T11:51:23.309Z,645.00
2024-05-09T11:52:22.346Z,642.00
2024-05-09T11:53:22.293Z,641.00
2024-05-09T11:54:22.295Z,641.00
2024-05-09T11:55:24.570Z,641.00
2024-05-09T11:56:22.268Z,640.00
2024-05-09T11:57:22.265Z,644.00
2024-05-09T11:58:22.322Z,640.00
2024-05-09T11:59:22.251Z,640.00
2024-05-09T12:00:29.635Z,638.00
2024-05-09T12:01:25.289Z,638.00
2024-05-09T12:02:22.318Z,638.00
2024-05-09T12:03:22.351Z,639.00
2024-05-09T12:04:22.402Z,640.00
2024-05-09T12:05:22.403Z,639.00
2024-05-09T12:06:22.206Z,637.00
2024-05-09T12:07:22.342Z,635.00
2024-05-09T12:08:22.214Z,637.00
2024-05-09T12:09:22.227Z,638.00
2024-05-09T12:10:26.288Z,640.00
2024-05-09T12:11:23.248Z,642.00
2024-05-09T12:12:22.198Z,643.00
2024-05-09T12:13:22.321Z,648.00
2024-05-09T12:14:22.193Z,646.00
2024-05-09T12:15:22.196Z,646.00
2024-05-09T12:16:22.311Z,645.00
2024-05-09T12:17:22.274Z,643.00
2024-05-09T12:18:22.222Z,639.00
2024-05-09T12:19:22.282Z,640.00
2024-05-09T12:20:28.826Z,639.00
2024-05-09T12:21:23.271Z,639.00
2024-05-09T12:22:22.348Z,640.00
2024-05-09T12:23:22.254Z,638.00
2024-05-09T12:24:22.251Z,639.00
2024-05-09T12:25:22.782Z,641.00
2024-05-09T12:26:22.254Z,639.00
2024-05-09T12:27:22.232Z,639.00
2024-05-09T12:28:22.330Z,640.00
2024-05-09T12:29:22.219Z,641.00
2024-05-09T12:30:32.698Z,640.00
2024-05-09T12:31:23.307Z,643.00
2024-05-09T12:32:22.252Z,644.00
2024-05-09T12:33:22.358Z,645.00
2024-05-09T12:34:22.253Z,646.00
2024-05-09T12:35:22.165Z,642.00
2024-05-09T12:36:22.163Z,641.00